Time;durP1;ratioP1;P1;durP2;ratioP2;P2;SDS_P1;SDS_P2;PMS_P1;PMS_P2;Temp;Humidity;BMP_temperature;BMP_pressure;BME280_temperature;BME280_humidity;BME280_pressure;Samples;Min_cycle;Max_cycle;Signal;HPM_P1;HPM_P2
2023/01/23 00:01:19;;;;;;;19.75;11.30;;;;;;;6.89;65.50;103709.94;5040044;28;20044;-40
2023/01/23 00:03:44;;;;;;;21.25;11.50;;;;;;;6.70;65.74;103716.28;5045099;28;20041;-41
2023/01/23 00:06:13;;;;;;;22.13;11.10;;;;;;;6.89;65.51;103715.13;5040971;28;20033;-42
2023/01/23 00:08:39;;;;;;;19.77;10.45;;;;;;;6.97;65.64;103714.81;5045496;28;20029;-41
2023/01/23 00:11:06;;;;;;;20.63;11.45;;;;;;;6.93;65.66;103712.00;5040416;28;20135;-40
2023/01/23 00:13:32;;;;;;;20.98;11.32;;;;;;;7.01;65.22;103715.16;5044786;28;20352;-41
2023/01/23 00:15:57;;;;;;;20.20;10.73;;;;;;;7.04;65.16;103720.56;5040479;28;20029;-43
2023/01/23 00:18:22;;;;;;;21.30;11.50;;;;;;;7.05;64.98;103714.59;5045406;28;20103;-42
2023/01/23 00:20:48;;;;;;;20.92;11.15;;;;;;;7.03;64.99;103713.56;5050368;28;20480;-39
2023/01/23 00:23:13;;;;;;;19.88;11.07;;;;;;;6.79;65.21;103714.34;5045818;28;20033;-39
2023/01/23 00:25:38;;;;;;;20.75;11.20;;;;;;;6.85;65.82;103705.34;5046787;28;20385;-40
2023/01/23 00:28:04;;;;;;;21.88;11.07;;;;;;;6.99;65.24;103701.16;5040861;28;20037;-40
2023/01/23 00:30:30;;;;;;;19.08;11.23;;;;;;;6.90;65.10;103687.50;5044185;28;20139;-41
2023/01/23 00:32:55;;;;;;;21.63;11.48;;;;;;;6.64;65.39;103697.69;5040945;28;20419;-40
2023/01/23 00:35:21;;;;;;;17.30;10.07;;;;;;;6.67;65.72;103695.31;5045177;28;20040;-38
2023/01/23 00:37:46;;;;;;;20.30;10.70;;;;;;;6.41;66.50;103703.72;5044805;28;20410;-41
2023/01/23 00:40:12;;;;;;;18.75;9.93;;;;;;;6.54;66.00;103677.94;5040449;28;20033;-43
2023/01/23 00:42:38;;;;;;;18.92;10.20;;;;;;;6.76;65.50;103676.16;5043928;28;20037;-42
2023/01/23 00:45:04;;;;;;;19.83;10.80;;;;;;;6.45;65.80;103683.34;5042898;28;20063;-39
2023/01/23 00:47:29;;;;;;;19.45;10.45;;;;;;;6.45;65.85;103678.16;5051287;28;20036;-40
2023/01/23 00:49:56;;;;;;;22.85;10.07;;;;;;;6.69;65.40;103680.78;5047900;28;20579;-40
2023/01/23 00:52:22;;;;;;;20.13;9.77;;;;;;;6.53;65.52;103682.22;5045257;28;20068;-40
2023/01/23 00:54:47;;;;;;;20.38;10.50;;;;;;;6.58;65.36;103680.00;5043401;28;20124;-39
2023/01/23 00:57:13;;;;;;;22.52;10.60;;;;;;;6.66;64.55;103681.44;5039810;28;20128;-44
2023/01/23 00:59:38;;;;;;;18.67;9.80;;;;;;;6.78;64.42;103676.25;5058851;22;20059;-44
2023/01/23 01:02:03;;;;;;;19.63;9.70;;;;;;;6.65;65.03;103682.22;5040020;28;20048;-45
2023/01/23 01:04:29;;;;;;;17.63;9.93;;;;;;;6.61;64.93;103675.00;5044327;28;20048;-44
2023/01/23 01:06:54;;;;;;;23.52;10.20;;;;;;;6.72;64.40;103683.56;5040593;28;20036;-44
2023/01/23 01:09:19;;;;;;;19.25;9.50;;;;;;;6.69;64.63;103678.19;5044385;28;20033;-46
2023/01/23 01:11:45;;;;;;;21.73;10.95;;;;;;;6.33;65.65;103677.25;5026427;28;20419;-43
2023/01/23 01:14:10;;;;;;;21.15;10.00;;;;;;;6.37;65.46;103678.38;5026062;28;20034;-47
2023/01/23 01:16:36;;;;;;;20.75;10.45;;;;;;;6.46;65.29;103684.25;5028423;28;20033;-44
2023/01/23 01:19:01;;;;;;;20.02;10.07;;;;;;;6.58;65.12;103676.50;5022154;28;20042;-47
2023/01/23 01:21:27;;;;;;;18.70;10.40;;;;;;;6.46;65.38;103682.53;5025430;28;20411;-47
2023/01/23 01:23:52;;;;;;;17.70;10.20;;;;;;;6.62;64.77;103683.69;5027596;28;20502;-46
2023/01/23 01:26:17;;;;;;;19.85;10.13;;;;;;;6.64;64.98;103688.22;5023550;28;20037;-45
2023/01/23 01:28:43;;;;;;;18.77;10.05;;;;;;;6.49;65.47;103681.88;5024143;28;20064;-46
2023/01/23 01:31:14;;;;;;;19.98;10.32;;;;;;;6.45;65.45;103680.75;5019455;28;20033;-45
2023/01/23 01:33:40;;;;;;;19.02;9.52;;;;;;;6.62;65.14;103686.28;5029977;28;20036;-49
2023/01/23 01:36:14;;;;;;;20.42;9.98;;;;;;;6.46;65.52;103686.84;5039822;28;20086;-47
2023/01/23 01:38:39;;;;;;;20.48;10.48;;;;;;;6.70;64.81;103690.34;5043673;28;20060;-49
2023/01/23 01:41:06;;;;;;;19.33;9.93;;;;;;;6.68;64.81;103697.09;5038789;28;20411;-44
2023/01/23 01:43:32;;;;;;;23.77;10.40;;;;;;;6.57;65.13;103701.50;5043884;28;20041;-47
2023/01/23 01:46:10;;;;;;;22.52;10.35;;;;;;;6.25;65.92;103705.94;5043832;28;20170;-45
2023/01/23 01:48:47;;;;;;;20.60;9.98;;;;;;;6.66;64.94;103701.28;5042030;28;20048;-44
2023/01/23 01:51:21;;;;;;;17.55;9.88;;;;;;;6.63;64.90;103699.38;5039208;28;20029;-44
2023/01/23 01:53:54;;;;;;;20.88;10.23;;;;;;;6.45;65.94;103700.59;5043747;28;20056;-45
2023/01/23 01:56:20;;;;;;;18.00;10.00;;;;;;;6.59;65.38;103701.63;5039651;28;20032;-46
2023/01/23 01:58:49;;;;;;;18.83;10.27;;;;;;;6.34;65.81;103704.94;5043369;28;20041;-44
2023/01/23 02:01:15;;;;;;;18.23;9.80;;;;;;;6.59;65.30;103710.28;5038691;28;20079;-44
2023/01/23 02:03:42;;;;;;;21.52;10.63;;;;;;;6.47;65.51;103705.09;5043455;28;20538;-50
2023/01/23 02:06:07;;;;;;;20.90;10.35;;;;;;;6.48;65.43;103714.66;5038411;28;20036;-48
2023/01/23 02:08:45;;;;;;;18.67;10.25;;;;;;;6.14;66.53;103712.91;5045547;28;20140;-47
2023/01/23 02:11:13;;;;;;;21.95;10.32;;;;;;;6.51;65.21;103714.91;5041545;28;20052;-43
2023/01/23 02:13:41;;;;;;;21.08;10.13;;;;;;;6.53;65.23;103713.31;5046023;28;20033;-44
2023/01/23 02:16:18;;;;;;;22.90;10.63;;;;;;;6.20;66.31;103707.28;5042244;28;20033;-46
2023/01/23 02:18:47;;;;;;;19.75;10.15;;;;;;;6.52;65.70;103708.03;5045869;28;20044;-44
2023/01/23 02:21:16;;;;;;;20.55;10.35;;;;;;;6.48;65.82;103721.53;5038415;28;20069;-47
2023/01/23 02:24:11;;;;;;;18.85;10.40;;;;;;;6.21;66.79;103715.19;5042677;28;20041;-44
2023/01/23 02:26:40;;;;;;;20.55;10.15;;;;;;;6.48;65.67;103714.66;5039602;28;20037;-46
2023/01/23 02:29:06;;;;;;;21.85;10.05;;;;;;;6.39;65.88;103719.19;5038911;28;20029;-45
2023/01/23 02:31:32;;;;;;;24.20;10.60;;;;;;;6.49;65.67;103716.47;5042392;28;20403;-44
2023/01/23 02:33:59;;;;;;;21.05;10.82;;;;;;;6.34;66.13;103719.63;5021428;28;20453;-45
2023/01/23 02:36:27;;;;;;;21.45;10.32;;;;;;;6.27;66.62;103717.34;5042942;28;20116;-45
2023/01/23 02:39:13;;;;;;;19.70;9.90;;;;;;;6.39;66.51;103718.28;5043539;28;20055;-46
2023/01/23 02:41:44;;;;;;;21.38;10.65;;;;;;;6.58;65.90;103715.38;5039804;28;20079;-46
2023/01/23 02:44:15;;;;;;;23.83;10.45;;;;;;;6.61;65.68;103713.91;5040424;28;20044;-44
2023/01/23 02:46:40;;;;;;;18.65;9.70;;;;;;;6.68;65.55;103710.06;5044476;28;20067;-44
2023/01/23 02:49:06;;;;;;;22.00;10.13;;;;;;;6.66;65.42;103703.88;5042006;28;20033;-44
2023/01/23 02:51:31;;;;;;;21.27;10.82;;;;;;;6.41;65.93;103715.00;5045637;28;20570;-45
2023/01/23 02:53:57;;;;;;;20.02;10.52;;;;;;;6.26;67.08;103708.66;5026067;28;20086;-45
2023/01/23 02:56:22;;;;;;;23.85;10.32;;;;;;;6.59;66.29;103714.59;5048348;28;20033;-44
2023/01/23 03:01:34;;;;;;;20.13;10.10;;;;;;;6.66;65.79;103717.72;5043307;28;20052;-48
2023/01/23 03:04:03;;;;;;;22.20;10.68;;;;;;;6.37;67.04;103722.41;5044950;28;20411;-47
2023/01/23 03:06:34;;;;;;;20.58;11.23;;;;;;;6.46;66.43;103713.63;5047188;28;20534;-48
2023/01/23 03:09:02;;;;;;;20.25;10.10;;;;;;;6.59;65.82;103715.47;5043792;28;20037;-43
2023/01/23 03:11:27;;;;;;;21.98;10.80;;;;;;;6.35;66.34;103718.81;5047075;28;20150;-44
2023/01/23 03:13:53;;;;;;;20.70;10.63;;;;;;;6.32;66.83;103721.19;5047524;28;20037;-47
2023/01/23 03:16:18;;;;;;;23.77;10.63;;;;;;;6.48;66.46;103722.44;5044438;28;20037;-45
2023/01/23 03:18:43;;;;;;;21.50;10.32;;;;;;;6.44;66.62;103717.81;5047876;28;20032;-46
2023/01/23 03:21:09;;;;;;;19.67;10.23;;;;;;;6.14;67.41;103715.50;5049230;28;20037;-44
2023/01/23 03:23:38;;;;;;;24.33;10.63;;;;;;;6.40;67.02;103726.13;5057124;28;20041;-43
2023/01/23 03:26:03;;;;;;;20.70;10.57;;;;;;;6.20;67.18;103722.84;5053602;28;20033;-47
2023/01/23 03:31:13;;;;;;;22.43;10.67;;;;;;;6.51;66.66;103734.75;5043085;28;20111;-45
2023/01/23 03:33:41;;;;;;;21.95;10.50;;;;;;;6.55;66.66;103731.59;5046459;28;20132;-44
2023/01/23 03:36:08;;;;;;;20.27;9.85;;;;;;;6.48;66.58;103735.41;5041996;28;20037;-45
2023/01/23 03:38:33;;;;;;;25.95;10.75;;;;;;;6.44;66.53;103732.47;5045942;28;20072;-46
2023/01/23 03:43:42;;;;;;;22.92;10.98;;;;;;;6.24;67.31;103736.13;5045957;28;20044;-46
2023/01/23 03:46:08;;;;;;;21.85;10.60;;;;;;;6.45;66.75;103736.88;5041962;28;20116;-44
2023/01/23 03:48:33;;;;;;;21.48;10.43;;;;;;;6.70;66.06;103735.34;5045350;28;20036;-45
2023/01/23 03:50:58;;;;;;;25.85;11.27;;;;;;;6.47;66.58;103736.19;5040809;28;20586;-44
2023/01/23 03:53:24;;;;;;;22.42;11.43;;;;;;;6.24;67.24;103736.13;5045423;28;20460;-43
2023/01/23 03:55:49;;;;;;;22.70;10.50;;;;;;;6.51;67.00;103737.34;5046038;28;20035;-44
2023/01/23 03:58:14;;;;;;;24.30;11.02;;;;;;;6.50;66.76;103740.72;5042329;28;20033;-45
2023/01/23 04:00:40;;;;;;;22.20;11.35;;;;;;;6.53;66.56;103733.16;5045050;28;20045;-45
2023/01/23 04:03:06;;;;;;;23.77;10.75;;;;;;;6.47;66.50;103736.19;5042072;28;20392;-47
2023/01/23 04:05:32;;;;;;;25.70;11.05;;;;;;;6.65;66.22;103738.38;5045728;28;20040;-44
2023/01/23 04:07:57;;;;;;;22.35;10.82;;;;;;;6.56;66.54;103735.97;5042421;28;20061;-46
2023/01/23 04:10:23;;;;;;;21.02;10.90;;;;;;;6.37;67.26;103746.66;5046238;28;20422;-44
2023/01/23 04:12:48;;;;;;;23.08;10.60;;;;;;;6.47;66.86;103735.28;5048420;28;20033;-48
2023/01/23 04:15:13;;;;;;;22.30;10.43;;;;;;;6.26;67.69;103729.41;5041872;28;20819;-46
2023/01/23 04:17:39;;;;;;;23.80;11.00;;;;;;;6.56;66.80;103733.38;5045060;28;20045;-44
2023/01/23 04:20:05;;;;;;;23.58;10.57;;;;;;;6.53;66.86;103734.88;5040951;28;20052;-43
2023/01/23 04:22:30;;;;;;;23.55;11.27;;;;;;;6.48;67.38;103737.09;5045231;28;20044;-44
2023/01/23 04:24:55;;;;;;;26.33;11.13;;;;;;;6.60;66.48;103738.00;5043953;28;20040;-45
2023/01/23 04:27:21;;;;;;;21.88;10.95;;;;;;;6.71;66.67;103737.13;5048568;28;20086;-45
2023/01/23 04:29:46;;;;;;;22.63;10.65;;;;;;;6.80;66.24;103740.41;5046139;28;20075;-45
2023/01/23 04:32:12;;;;;;;25.40;11.95;;;;;;;6.70;66.37;103750.91;5041934;28;20041;-47
2023/01/23 04:34:37;;;;;;;22.23;10.93;;;;;;;6.81;66.01;103743.91;5044688;28;20064;-45
2023/01/23 04:37:03;;;;;;;23.17;10.77;;;;;;;6.64;66.30;103755.63;5041370;28;20029;-44
2023/01/23 04:39:30;;;;;;;22.13;10.77;;;;;;;6.52;66.85;103749.50;5045220;28;20037;-43
2023/01/23 04:41:55;;;;;;;22.95;10.95;;;;;;;6.70;66.54;103755.19;5040862;28;20037;-45
2023/01/23 04:44:20;;;;;;;21.65;10.82;;;;;;;6.47;66.72;103759.50;5044773;28;20124;-50
2023/01/23 04:46:54;;;;;;;21.45;11.38;;;;;;;6.57;66.85;103763.72;5044558;28;20450;-47
2023/01/23 04:49:21;;;;;;;23.48;11.25;;;;;;;6.41;67.16;103765.91;5040787;28;20051;-46
2023/01/23 04:51:48;;;;;;;24.15;11.25;;;;;;;6.41;67.46;103766.81;5043292;28;20120;-44
2023/01/23 04:54:14;;;;;;;24.60;11.40;;;;;;;6.68;67.25;103769.69;5040588;28;22651;-45
2023/01/23 04:56:40;;;;;;;23.58;11.13;;;;;;;6.71;66.70;103775.13;5043610;28;20119;-44
2023/01/23 04:59:05;;;;;;;19.75;10.82;;;;;;;6.85;66.05;103777.94;5040677;28;20040;-45
2023/01/23 05:01:31;;;;;;;24.10;10.98;;;;;;;6.88;66.28;103770.41;5043535;28;20045;-44
2023/01/23 05:03:56;;;;;;;23.75;11.52;;;;;;;6.89;66.04;103772.19;5040533;28;20126;-44
2023/01/23 05:06:22;;;;;;;24.92;11.95;;;;;;;6.66;66.53;103776.44;5045354;28;20048;-44
2023/01/23 05:08:47;;;;;;;24.27;11.27;;;;;;;6.71;66.78;103770.81;5044608;28;20025;-45
2023/01/23 05:11:12;;;;;;;22.70;10.80;;;;;;;6.77;66.63;103762.63;5040159;28;20033;-44
2023/01/23 05:13:38;;;;;;;21.85;11.13;;;;;;;6.83;66.15;103768.28;5026524;28;20052;-46
2023/01/23 05:16:04;;;;;;;23.05;11.85;;;;;;;6.70;66.24;103771.63;5040072;28;20120;-44
2023/01/23 05:18:29;;;;;;;23.50;11.80;;;;;;;6.77;66.60;103767.81;5043499;28;20047;-49
2023/01/23 05:20:55;;;;;;;22.55;11.05;;;;;;;6.80;66.15;103773.22;5039378;28;20041;-45
2023/01/23 05:23:20;;;;;;;23.58;11.68;;;;;;;6.46;67.10;103767.19;5043951;28;20122;-45
2023/01/23 05:25:45;;;;;;;22.05;11.43;;;;;;;6.40;67.47;103774.50;5044125;28;20415;-44
2023/01/23 05:28:12;;;;;;;26.17;12.05;;;;;;;6.54;67.27;103773.84;5039782;28;20040;-45
2023/01/23 05:30:37;;;;;;;22.73;11.70;;;;;;;6.88;66.41;103772.09;5043331;28;20037;-44
2023/01/23 05:33:03;;;;;;;26.15;11.93;;;;;;;6.58;66.85;103775.91;5040112;28;20407;-46
2023/01/23 05:35:28;;;;;;;25.65;13.80;;;;;;;6.79;66.74;103768.81;5042967;28;20037;-45
2023/01/23 05:37:53;;;;;;;25.95;12.68;;;;;;;6.85;66.31;103764.06;5044202;28;20045;-43
2023/01/23 05:40:19;;;;;;;25.40;12.07;;;;;;;6.86;66.19;103764.19;5039498;28;20403;-48
2023/01/23 05:42:46;;;;;;;25.17;12.32;;;;;;;6.82;66.25;103759.59;5043199;28;20428;-45
2023/01/23 05:45:12;;;;;;;26.42;12.10;;;;;;;6.69;66.71;103762.03;5039315;28;20044;-45
2023/01/23 05:47:38;;;;;;;24.92;11.98;;;;;;;6.74;66.53;103773.66;5043543;28;20052;-44
2023/01/23 05:50:04;;;;;;;23.85;11.48;;;;;;;6.96;66.39;103763.16;5039263;28;20029;-43
2023/01/23 05:52:29;;;;;;;27.50;12.73;;;;;;;6.86;66.72;103769.38;5042458;28;20052;-43
2023/01/23 05:54:54;;;;;;;26.65;12.63;;;;;;;7.01;66.10;103774.81;5040227;28;20029;-44
2023/01/23 05:57:21;;;;;;;25.35;12.48;;;;;;;6.77;66.34;103768.69;5042674;28;20538;-46
2023/01/23 05:59:46;;;;;;;25.42;11.93;;;;;;;6.92;66.23;103767.25;5043478;28;20060;-48
2023/01/23 06:02:11;;;;;;;22.40;11.80;;;;;;;6.99;65.97;103770.28;5038949;28;20457;-44
2023/01/23 06:04:37;;;;;;;24.90;11.93;;;;;;;6.84;66.38;103770.03;5043971;28;20127;-45
2023/01/23 06:07:02;;;;;;;25.30;12.30;;;;;;;6.87;66.21;103776.38;5039829;28;20025;-45
2023/01/23 06:09:28;;;;;;;24.33;12.05;;;;;;;6.90;66.30;103780.88;5043183;28;20119;-42
2023/01/23 06:11:53;;;;;;;28.92;12.48;;;;;;;6.60;66.99;103783.75;5042761;28;20041;-48
2023/01/23 06:14:18;;;;;;;27.88;12.77;;;;;;;6.78;66.76;103788.66;5039446;28;20111;-47
2023/01/23 06:16:43;;;;;;;26.30;12.93;;;;;;;6.57;67.27;103781.84;5043151;28;20498;-45
2023/01/23 06:19:09;;;;;;;24.42;12.00;;;;;;;6.80;66.76;103792.25;5040357;28;20037;-45
2023/01/23 06:21:35;;;;;;;26.60;13.27;;;;;;;6.81;66.37;103793.16;5044324;28;20047;-44
2023/01/23 06:24:01;;;;;;;25.70;12.55;;;;;;;6.66;66.87;103792.91;5039486;28;20123;-47
2023/01/23 06:26:26;;;;;;;24.20;12.30;;;;;;;6.65;67.29;103787.63;5043238;28;20033;-43
2023/01/23 06:28:51;;;;;;;27.50;13.00;;;;;;;6.90;65.95;103786.06;5043113;28;20048;-44
2023/01/23 06:31:17;;;;;;;26.42;12.43;;;;;;;6.90;66.52;103781.78;5039314;28;20029;-44
2023/01/23 06:33:42;;;;;;;30.38;12.82;;;;;;;6.89;66.28;103781.69;5046158;28;20041;-46
2023/01/23 06:36:08;;;;;;;25.42;12.35;;;;;;;6.99;66.19;103786.75;5041510;28;20040;-45
2023/01/23 06:38:33;;;;;;;25.63;13.15;;;;;;;6.75;66.56;103787.53;5042793;28;20033;-46
2023/01/23 06:41:00;;;;;;;26.50;12.48;;;;;;;6.76;66.79;103776.38;5038494;28;20037;-44
2023/01/23 06:43:25;;;;;;;24.35;12.88;;;;;;;6.60;67.51;103781.16;5042621;28;20045;-44
2023/01/23 06:45:51;;;;;;;22.95;12.68;;;;;;;6.64;66.98;103784.13;5042663;28;20037;-47
2023/01/23 06:48:16;;;;;;;25.45;12.18;;;;;;;6.93;66.22;103789.81;5039040;28;20156;-45
2023/01/23 06:50:42;;;;;;;27.38;12.50;;;;;;;6.55;67.14;103790.28;5041483;28;20029;-45
2023/01/23 06:53:11;;;;;;;27.08;12.30;;;;;;;6.65;67.23;103792.81;5038332;28;20411;-44
2023/01/23 06:55:36;;;;;;;27.08;12.82;;;;;;;6.34;67.92;103794.75;5042504;28;20045;-45
2023/01/23 06:58:02;;;;;;;27.00;12.43;;;;;;;6.47;68.04;103790.59;5039408;28;20384;-46
2023/01/23 07:00:27;;;;;;;25.70;12.73;;;;;;;6.41;67.78;103803.09;5049155;22;20045;-82
2023/01/23 07:02:53;;;;;;;26.02;12.48;;;;;;;6.63;66.85;103800.47;5017057;28;20061;-80
2023/01/23 07:05:18;;;;;;;24.70;12.27;;;;;;;6.76;67.05;103798.03;5027307;28;20493;-83
2023/01/23 07:07:44;;;;;;;27.52;12.88;;;;;;;6.74;66.73;103806.47;5012676;28;20044;-85
2023/01/23 07:10:10;;;;;;;22.42;12.55;;;;;;;6.58;67.30;103806.09;5002525;28;20062;-82
2023/01/23 07:12:36;;;;;;;27.17;13.13;;;;;;;6.30;68.00;103813.41;4996093;28;20514;-81
2023/01/23 07:15:06;;;;;;;25.63;13.02;;;;;;;6.33;67.94;103804.22;5005036;28;20055;-82
2023/01/23 07:17:31;;;;;;;24.85;13.00;;;;;;;6.69;67.34;103813.91;5009867;28;20045;-80
2023/01/23 07:19:56;;;;;;;24.13;13.18;;;;;;;6.38;67.85;103813.25;5004347;28;20406;-82
2023/01/23 07:22:22;;;;;;;26.10;12.73;;;;;;;6.53;67.61;103822.19;5007493;28;20029;-82
2023/01/23 07:24:47;;;;;;;28.92;13.25;;;;;;;6.73;66.59;103821.09;5012340;28;20033;-83
2023/01/23 07:27:13;;;;;;;27.38;12.80;;;;;;;6.63;67.00;103816.03;5007488;28;20033;-81
2023/01/23 07:29:39;;;;;;;24.95;12.95;;;;;;;6.77;66.84;103824.84;5002196;28;20034;-83
2023/01/23 07:32:05;;;;;;;22.15;12.32;;;;;;;6.64;67.33;103823.03;5018643;28;20042;-81
2023/01/23 07:34:31;;;;;;;27.45;13.52;;;;;;;6.80;66.59;103823.38;5033778;28;20040;-83
2023/01/23 07:36:57;;;;;;;22.92;12.70;;;;;;;6.81;66.64;103826.88;5010663;28;20034;-83
2023/01/23 07:39:22;;;;;;;24.70;13.18;;;;;;;6.92;66.38;103824.31;5019654;28;20080;-82
2023/01/23 07:41:48;;;;;;;27.38;13.75;;;;;;;6.92;66.03;103828.59;5021698;28;20040;-84
2023/01/23 07:44:16;;;;;;;25.10;12.95;;;;;;;6.57;67.42;103837.97;5020456;28;20037;-82
2023/01/23 07:46:45;;;;;;;27.50;13.30;;;;;;;6.56;67.11;103836.16;5031699;28;20029;-82
2023/01/23 07:49:11;;;;;;;28.02;13.23;;;;;;;6.66;67.30;103839.56;5036736;28;20029;-81
2023/01/23 07:51:36;;;;;;;28.38;13.75;;;;;;;6.77;66.82;103843.00;5060652;28;20036;-80
2023/01/23 07:54:01;;;;;;;27.20;13.15;;;;;;;6.87;66.61;103843.81;5054675;28;20037;-83
2023/01/23 07:56:27;;;;;;;25.15;13.00;;;;;;;6.82;66.43;103847.75;5056914;28;20508;-85
2023/01/23 07:58:52;;;;;;;24.23;13.10;;;;;;;6.68;67.21;103865.63;5044315;28;20033;-83
2023/01/23 08:01:18;;;;;;;26.50;12.77;;;;;;;6.97;66.18;103855.75;5057893;28;20037;-82
2023/01/23 08:03:46;;;;;;;24.73;12.88;;;;;;;7.00;66.37;103850.81;5032324;28;20040;-82
2023/01/23 08:06:12;;;;;;;26.45;12.98;;;;;;;6.65;67.29;103865.41;5037956;28;20033;-82
2023/01/23 08:08:38;;;;;;;30.95;13.13;;;;;;;6.72;67.45;103863.38;5038929;28;20043;-83
2023/01/23 08:11:05;;;;;;;22.13;12.70;;;;;;;6.89;66.49;103864.69;5030142;28;20504;-82
2023/01/23 08:13:30;;;;;;;28.52;13.90;;;;;;;6.79;66.81;103870.84;5015655;28;20033;-83
2023/01/23 08:15:59;;;;;;;30.02;13.02;;;;;;;6.98;66.48;103864.44;5029049;28;20044;-84
2023/01/23 08:18:25;;;;;;;26.23;13.30;;;;;;;6.70;67.22;103869.25;5033682;28;20051;-82
2023/01/23 08:20:53;;;;;;;26.38;13.98;;;;;;;6.96;66.44;103872.09;5032617;28;20512;-84
2023/01/23 08:23:24;;;;;;;25.70;13.60;;;;;;;6.81;66.51;103878.75;5018434;28;20033;-83
2023/01/23 08:25:57;;;;;;;23.75;12.60;;;;;;;6.87;65.95;103894.78;5010578;28;20033;-83
2023/01/23 08:28:23;;;;;;;26.00;12.90;;;;;;;6.99;66.36;103887.91;5031435;28;20030;-84
2023/01/23 08:30:52;;;;;;;25.00;12.82;;;;;;;7.13;66.17;103895.06;5025978;28;20493;-83
2023/01/23 08:33:18;;;;;;;23.80;13.00;;;;;;;6.76;66.79;103893.06;5027080;28;20034;-82
2023/01/23 08:35:56;;;;;;;29.35;13.45;;;;;;;6.87;66.89;103897.38;5036076;28;20109;-82
2023/01/23 08:38:22;;;;;;;27.58;13.00;;;;;;;6.77;67.15;103898.31;5028051;28;20506;-83
2023/01/23 08:40:50;;;;;;;25.35;13.52;;;;;;;6.89;66.74;103901.84;5030219;28;20057;-82
2023/01/23 08:43:17;;;;;;;24.45;12.70;;;;;;;7.09;65.98;103899.88;5030240;28;20041;-82
2023/01/23 08:45:56;;;;;;;27.52;12.95;;;;;;;7.05;66.17;103903.03;5032060;28;20513;-84
2023/01/23 08:48:23;;;;;;;25.55;13.20;;;;;;;7.06;66.46;103903.16;5028777;28;20029;-82
2023/01/23 08:50:50;;;;;;;27.20;13.50;;;;;;;7.21;65.89;103903.41;5032926;28;20045;-83
2023/01/23 08:53:18;;;;;;;26.15;13.00;;;;;;;6.84;66.96;103907.47;5014259;28;20430;-83
2023/01/23 08:55:43;;;;;;;25.05;12.48;;;;;;;7.13;65.95;103909.72;5005450;28;20037;-84
2023/01/23 08:58:11;;;;;;;24.55;12.77;;;;;;;7.26;65.67;103908.13;5014985;28;20119;-82
2023/01/23 09:00:37;;;;;;;24.30;12.82;;;;;;;7.34;65.58;103911.31;5011743;28;20037;-84
2023/01/23 09:03:03;;;;;;;22.00;12.82;;;;;;;7.45;65.21;103913.00;5007555;28;20030;-84
2023/01/23 09:05:31;;;;;;;24.27;13.40;;;;;;;7.47;65.23;103910.53;5028407;28;20061;-82
2023/01/23 09:07:58;;;;;;;24.75;13.00;;;;;;;7.27;64.99;103911.63;5008021;28;20117;-82
2023/01/23 09:10:24;;;;;;;25.90;13.38;;;;;;;7.63;65.01;103910.88;5009877;28;20054;-83
2023/01/23 09:12:54;;;;;;;27.67;13.35;;;;;;;7.59;64.81;103912.34;5026878;28;20128;-83
2023/01/23 09:15:21;;;;;;;25.13;13.45;;;;;;;7.25;65.42;103918.44;5009942;28;20056;-84
2023/01/23 09:17:47;;;;;;;24.05;13.13;;;;;;;6.70;66.65;103913.31;5012900;28;20093;-81
2023/01/23 09:20:12;;;;;;;26.75;13.32;;;;;;;7.29;65.69;103916.16;5015725;28;20050;-83
2023/01/23 09:22:37;;;;;;;23.55;12.75;;;;;;;7.53;65.38;103911.00;5020828;28;20038;-82
2023/01/23 09:25:03;;;;;;;22.50;13.32;;;;;;;7.38;65.29;103907.28;5017929;28;20053;-79
2023/01/23 09:27:29;;;;;;;24.45;13.32;;;;;;;7.66;64.94;103914.63;5022828;28;20034;-82
2023/01/23 09:29:54;;;;;;;26.40;13.45;;;;;;;7.45;65.50;103913.00;5022999;28;20072;-82
2023/01/23 09:32:19;;;;;;;24.20;13.70;;;;;;;7.55;65.22;103910.34;5004230;28;20033;-83
2023/01/23 09:34:48;;;;;;;26.63;13.90;;;;;;;7.65;64.69;103914.50;5013713;28;20033;-83
2023/01/23 09:37:14;;;;;;;27.75;14.35;;;;;;;7.42;65.64;103914.50;5010266;28;20064;-84
2023/01/23 09:39:44;;;;;;;25.92;13.68;;;;;;;7.71;65.06;103915.84;5014465;28;20098;-83
2023/01/23 09:42:22;;;;;;;22.95;13.40;;;;;;;7.75;64.47;103914.38;4990138;28;20407;-82
2023/01/23 09:44:55;;;;;;;28.17;13.93;;;;;;;7.54;65.01;103916.31;5013055;28;20491;-83
2023/01/23 09:48:12;;;;;;;26.95;13.80;;;;;;;7.65;65.20;103923.19;5010713;28;20353;-83
2023/01/23 09:50:50;;;;;;;25.38;13.25;;;;;;;7.29;65.83;103920.47;4997923;28;20037;-83
2023/01/23 09:53:20;;;;;;;24.58;13.43;;;;;;;7.79;64.49;103920.72;5026444;28;20043;-84
2023/01/23 09:55:48;;;;;;;24.92;13.93;;;;;;;7.48;65.51;103914.94;5042889;28;20040;-83
2023/01/23 09:58:29;;;;;;;25.42;13.57;;;;;;;7.81;64.75;103914.81;5033454;28;20065;-82
2023/01/23 10:00:54;;;;;;;28.05;13.77;;;;;;;7.88;64.31;103919.66;5033113;28;20042;-83
2023/01/23 10:03:22;;;;;;;26.38;13.40;;;;;;;7.46;64.88;103919.13;5031741;28;20089;-82
2023/01/23 10:06:15;;;;;;;25.67;14.25;;;;;;;7.82;64.69;103920.91;5047009;28;20048;-82
2023/01/23 10:08:53;;;;;;;25.52;14.18;;;;;;;7.65;65.30;103914.50;5044131;28;20100;-84
2023/01/23 10:11:37;;;;;;;25.15;13.45;;;;;;;7.46;65.50;103914.81;5041446;28;20045;-85
2023/01/23 10:14:44;;;;;;;25.93;13.57;;;;;;;7.95;64.61;103916.72;5035348;28;20032;-84
2023/01/23 10:17:21;;;;;;;25.25;13.20;;;;;;;7.95;63.87;103911.53;5041619;28;20200;-85
2023/01/23 10:20:08;;;;;;;25.30;13.40;;;;;;;8.15;63.21;103913.88;5033290;28;20057;-83
2023/01/23 10:22:49;;;;;;;25.58;12.82;;;;;;;8.19;63.91;103909.78;5014756;28;20091;-84
2023/01/23 10:25:22;;;;;;;23.98;12.45;;;;;;;8.24;63.53;103913.59;5031466;28;20053;-83
2023/01/23 10:27:50;;;;;;;23.15;13.00;;;;;;;7.98;63.89;103911.78;5025145;28;20068;-83
2023/01/23 10:30:27;;;;;;;25.83;13.55;;;;;;;8.43;62.66;103914.16;5029049;28;20124;-84
2023/01/23 10:33:12;;;;;;;23.90;13.57;;;;;;;8.43;63.07;103911.56;5034591;28;20037;-84
2023/01/23 10:35:49;;;;;;;25.77;13.73;;;;;;;8.42;62.45;103903.63;5026307;28;20055;-83
2023/01/23 10:38:26;;;;;;;23.83;13.02;;;;;;;8.05;62.60;103895.78;5023369;28;21298;-85
2023/01/23 10:43:36;;;;;;;23.02;13.25;;;;;;;8.69;61.87;103910.78;5028806;28;20060;-83
2023/01/23 10:46:08;;;;;;;24.63;12.82;;;;;;;8.78;61.56;103908.78;5019683;28;20041;-83
2023/01/23 10:48:35;;;;;;;28.45;13.75;;;;;;;8.58;61.32;103908.22;5034360;28;20033;-81
2023/01/23 10:51:00;;;;;;;24.67;14.02;;;;;;;8.54;60.95;103915.81;5029862;28;20384;-83
2023/01/23 10:53:28;;;;;;;25.27;14.50;;;;;;;8.46;61.91;103921.28;5025896;28;20044;-83
2023/01/23 10:55:58;;;;;;;25.27;13.80;;;;;;;8.57;61.34;103924.63;5036996;28;20037;-82
2023/01/23 10:58:38;;;;;;;25.38;13.93;;;;;;;8.91;61.01;103923.56;5033290;28;20037;-85
2023/01/23 11:01:05;;;;;;;24.15;13.05;;;;;;;9.01;60.31;103905.19;5017759;28;20045;-83
2023/01/23 11:03:33;;;;;;;23.60;12.82;;;;;;;8.89;60.61;103915.66;5026133;28;20037;-83
2023/01/23 11:06:15;;;;;;;21.70;12.25;;;;;;;8.84;59.73;103910.94;5029795;28;20040;-82
2023/01/23 11:08:51;;;;;;;21.35;12.25;;;;;;;8.88;59.83;103912.94;4974063;28;20045;-84
2023/01/23 11:11:21;;;;;;;25.67;13.00;;;;;;;9.11;59.66;103923.22;5012010;28;20086;-84
2023/01/23 11:13:49;;;;;;;24.23;12.52;;;;;;;9.07;59.20;103921.22;5030344;28;20045;-84
2023/01/23 11:16:22;;;;;;;23.15;12.40;;;;;;;8.75;59.65;103920.69;5027507;28;21397;-82
2023/01/23 11:19:03;;;;;;;22.60;13.60;;;;;;;8.87;59.10;103924.16;5029259;28;20057;-84
2023/01/23 11:21:33;;;;;;;23.40;12.75;;;;;;;8.85;59.73;103921.44;4995012;28;20033;-84
2023/01/23 11:24:37;;;;;;;21.45;12.57;;;;;;;9.01;59.30;103914.69;5018963;28;20029;-85
2023/01/23 11:27:11;;;;;;;23.65;13.07;;;;;;;9.12;59.58;103914.63;5025674;28;20030;-82
2023/01/23 11:29:49;;;;;;;;;;;;;;;8.58;59.86;103909.13;5028990;28;20041;-83
2023/01/23 11:32:16;;;;;;;23.15;12.85;;;;;;;8.49;59.86;103905.88;5027475;28;22176;-84